createdAt,value
2016-10-16T00:00:35.355Z,0
2016-10-16T00:01:16.816Z,0
2016-10-16T00:01:58.461Z,0
2016-10-16T00:02:40.086Z,0
2016-10-16T00:03:21.725Z,0
2016-10-16T00:04:03.388Z,0
2016-10-16T00:06:39.846Z,0
2016-10-16T00:07:21.569Z,0
2016-10-16T00:08:03.249Z,0
2016-10-16T00:08:44.895Z,0
2016-10-16T00:09:26.555Z,0
2016-10-16T00:10:08.257Z,0
2016-10-16T00:10:49.947Z,0
2016-10-16T00:11:31.686Z,0
2016-10-16T00:12:13.383Z,0
2016-10-16T00:12:55.224Z,0
2016-10-16T00:13:36.928Z,0
2016-10-16T00:14:18.662Z,0
2016-10-16T00:15:00.429Z,0
2016-10-16T00:15:41.895Z,0
2016-10-16T00:16:23.521Z,0
2016-10-16T00:17:05.208Z,0
2016-10-16T00:17:46.920Z,0
2016-10-16T00:18:28.674Z,0
2016-10-16T00:19:10.461Z,0
2016-10-16T00:19:52.174Z,0
2016-10-16T00:20:33.870Z,0
2016-10-16T00:21:15.652Z,0
2016-10-16T00:21:57.372Z,0
2016-10-16T00:22:39.144Z,0
2016-10-16T00:23:20.871Z,0
2016-10-16T00:25:36.242Z,0
2016-10-16T00:26:17.979Z,0
2016-10-16T00:26:59.656Z,0
2016-10-16T00:28:59.781Z,0
2016-10-16T00:29:41.551Z,0
2016-10-16T00:30:23.294Z,0
2016-10-16T00:31:04.760Z,0
2016-10-16T00:31:46.289Z,0
2016-10-16T00:32:27.289Z,0
2016-10-16T00:33:08.926Z,0
2016-10-16T00:33:50.582Z,0
2016-10-16T00:36:26.934Z,0
2016-10-16T00:37:08.484Z,0
2016-10-16T00:39:23.847Z,0
2016-10-16T00:40:05.493Z,0
2016-10-16T00:42:20.848Z,0
2016-10-16T00:43:02.590Z,0
2016-10-16T00:43:44.226Z,0
2016-10-16T00:44:25.907Z,0
2016-10-16T00:46:25.945Z,0
2016-10-16T00:47:07.609Z,0
2016-10-16T00:47:49.244Z,0
2016-10-16T00:48:30.940Z,0
2016-10-16T00:49:12.699Z,0
2016-10-16T00:49:54.380Z,0
2016-10-16T00:51:54.529Z,0
2016-10-16T00:52:36.279Z,0
2016-10-16T00:53:18.041Z,0
2016-10-16T00:53:59.758Z,0
2016-10-16T00:54:41.423Z,0
2016-10-16T00:55:23.152Z,0
2016-10-16T00:56:04.889Z,0
2016-10-16T00:56:46.610Z,0
2016-10-16T00:57:28.182Z,0
2016-10-16T00:58:08.731Z,0
2016-10-16T00:58:49.255Z,0
2016-10-16T00:59:29.788Z,0
2016-10-16T01:00:10.329Z,0
2016-10-16T01:00:50.860Z,0
2016-10-16T01:01:31.394Z,0
2016-10-16T01:02:11.914Z,0
2016-10-16T01:02:52.452Z,0
2016-10-16T01:03:32.996Z,0
2016-10-16T01:04:13.535Z,0
2016-10-16T01:04:54.074Z,0
2016-10-16T01:05:34.609Z,0
2016-10-16T01:06:15.144Z,0
2016-10-16T01:06:55.681Z,0
2016-10-16T01:07:36.212Z,0
2016-10-16T01:08:16.746Z,0
2016-10-16T01:08:57.284Z,0
2016-10-16T01:09:37.825Z,0
2016-10-16T01:10:18.359Z,0
2016-10-16T01:10:58.899Z,0
2016-10-16T01:11:39.440Z,0
2016-10-16T01:12:19.966Z,0
2016-10-16T01:13:00.501Z,0
2016-10-16T01:13:41.050Z,0
2016-10-16T01:14:21.577Z,0
2016-10-16T01:15:02.116Z,0
2016-10-16T01:15:42.653Z,0
2016-10-16T01:16:23.198Z,0
2016-10-16T01:17:03.731Z,0
2016-10-16T01:17:44.267Z,0
2016-10-16T01:18:24.803Z,0
2016-10-16T01:19:05.343Z,0
2016-10-16T01:19:45.879Z,0
2016-10-16T01:20:26.420Z,0
2016-10-16T01:21:06.946Z,0
2016-10-16T01:21:47.483Z,0
2016-10-16T01:22:28.017Z,0
2016-10-16T01:23:08.558Z,0
2016-10-16T01:23:49.106Z,0
2016-10-16T01:24:29.641Z,0
2016-10-16T01:25:10.180Z,0
2016-10-16T01:25:50.723Z,0
2016-10-16T01:26:31.258Z,0
2016-10-16T01:27:11.796Z,0
2016-10-16T01:27:52.330Z,0
2016-10-16T01:28:32.865Z,0
2016-10-16T01:29:13.402Z,0
2016-10-16T01:29:53.951Z,0
2016-10-16T01:30:34.494Z,0
2016-10-16T01:31:15.027Z,0
2016-10-16T01:31:55.567Z,0
2016-10-16T01:32:36.107Z,0
2016-10-16T01:33:16.629Z,0
2016-10-16T01:33:57.165Z,0
2016-10-16T01:34:37.704Z,0
2016-10-16T01:35:18.242Z,0
2016-10-16T01:35:58.782Z,0
2016-10-16T01:36:39.314Z,0
2016-10-16T01:37:19.861Z,0
2016-10-16T01:38:00.393Z,0
2016-10-16T01:38:40.931Z,0
2016-10-16T01:39:21.471Z,0
2016-10-16T01:40:02.005Z,0
2016-10-16T01:40:42.546Z,0
2016-10-16T01:41:23.085Z,0
2016-10-16T01:42:03.618Z,0
2016-10-16T01:42:44.157Z,0
2016-10-16T01:43:24.699Z,0
2016-10-16T01:44:05.234Z,0
2016-10-16T01:44:45.768Z,0
2016-10-16T01:45:26.314Z,0
2016-10-16T01:46:06.843Z,0
2016-10-16T01:46:47.386Z,0
2016-10-16T01:47:27.920Z,0
2016-10-16T01:48:08.455Z,0
2016-10-16T01:48:48.988Z,0
2016-10-16T01:49:29.521Z,0
2016-10-16T01:50:10.063Z,0
2016-10-16T01:50:50.595Z,0
2016-10-16T01:51:31.135Z,0
2016-10-16T01:52:11.670Z,0
2016-10-16T01:52:52.198Z,0
2016-10-16T01:53:32.736Z,0
2016-10-16T01:54:13.278Z,0
2016-10-16T01:54:53.819Z,0
2016-10-16T01:55:34.354Z,0
2016-10-16T01:56:14.894Z,0
2016-10-16T01:56:55.424Z,0
2016-10-16T01:57:35.969Z,0
2016-10-16T01:58:16.491Z,0
2016-10-16T01:58:57.030Z,0
2016-10-16T01:59:37.571Z,0
2016-10-16T02:00:18.119Z,0
2016-10-16T02:00:58.658Z,0
2016-10-16T02:01:39.180Z,0
2016-10-16T02:02:19.727Z,0
2016-10-16T02:03:00.265Z,0
2016-10-16T02:03:40.810Z,0
2016-10-16T02:04:21.349Z,0
2016-10-16T02:05:01.890Z,0
2016-10-16T02:05:42.428Z,0
2016-10-16T02:06:22.957Z,0
2016-10-16T02:07:03.493Z,0
2016-10-16T02:07:44.040Z,0
2016-10-16T02:08:24.576Z,0
2016-10-16T02:09:05.112Z,0
2016-10-16T02:09:45.648Z,0
2016-10-16T02:10:26.186Z,0
2016-10-16T02:11:06.734Z,0
2016-10-16T02:11:47.278Z,0
2016-10-16T02:12:27.820Z,0
2016-10-16T02:13:08.357Z,0
2016-10-16T02:13:48.896Z,0
2016-10-16T02:14:29.428Z,0
2016-10-16T02:15:09.963Z,0
2016-10-16T02:15:50.501Z,0
2016-10-16T02:16:31.053Z,0
2016-10-16T02:17:11.592Z,0
2016-10-16T02:17:52.133Z,0
2016-10-16T02:18:32.674Z,0
2016-10-16T02:19:13.213Z,0
2016-10-16T02:19:53.745Z,0
2016-10-16T02:20:34.283Z,0
2016-10-16T02:21:14.817Z,0
2016-10-16T02:21:55.359Z,0
2016-10-16T02:22:35.900Z,0
2016-10-16T02:23:16.436Z,0
2016-10-16T02:23:56.979Z,0
2016-10-16T02:24:37.529Z,0
2016-10-16T02:25:18.061Z,0
2016-10-16T02:25:58.603Z,0
2016-10-16T02:26:39.133Z,0
2016-10-16T02:27:19.670Z,0
2016-10-16T02:28:00.215Z,0
2016-10-16T02:28:40.757Z,0
2016-10-16T02:29:21.296Z,0
2016-10-16T02:30:01.828Z,0
2016-10-16T02:30:42.365Z,0
2016-10-16T02:31:22.892Z,0
2016-10-16T02:32:03.425Z,0
2016-10-16T02:32:43.963Z,0
2016-10-16T02:33:24.509Z,0
2016-10-16T02:34:05.049Z,0
2016-10-16T02:34:45.593Z,0
2016-10-16T02:35:26.129Z,0
2016-10-16T02:36:06.677Z,0
2016-10-16T02:36:47.217Z,0
2016-10-16T02:37:27.752Z,0
2016-10-16T02:38:08.291Z,0
2016-10-16T02:38:48.830Z,0
2016-10-16T02:39:29.366Z,0
2016-10-16T02:40:09.898Z,0
2016-10-16T02:40:50.442Z,0
2016-10-16T02:41:30.982Z,0
2016-10-16T02:42:11.510Z,0
2016-10-16T02:42:52.047Z,0
2016-10-16T02:43:32.584Z,0
2016-10-16T02:44:13.124Z,0
2016-10-16T02:44:53.662Z,0
2016-10-16T02:45:34.199Z,0
2016-10-16T02:46:14.737Z,0
2016-10-16T02:46:55.267Z,0
2016-10-16T02:47:35.803Z,0
2016-10-16T02:48:16.349Z,0
2016-10-16T02:48:56.884Z,0
2016-10-16T02:49:37.424Z,0
2016-10-16T02:50:17.961Z,0
2016-10-16T02:50:58.501Z,0
2016-10-16T02:51:39.043Z,0
2016-10-16T02:52:19.577Z,0
2016-10-16T02:53:00.110Z,0
2016-10-16T02:53:40.649Z,0
2016-10-16T02:54:21.189Z,0
2016-10-16T02:55:01.732Z,0
2016-10-16T02:55:42.270Z,0
2016-10-16T02:56:22.809Z,0
2016-10-16T02:57:03.348Z,0
2016-10-16T02:57:43.876Z,0
2016-10-16T02:58:24.417Z,0
2016-10-16T02:59:04.953Z,0
2016-10-16T02:59:45.495Z,0
2016-10-16T03:00:26.034Z,0
2016-10-16T03:01:06.577Z,0
2016-10-16T03:01:47.109Z,0
2016-10-16T03:02:27.652Z,0
2016-10-16T03:03:08.194Z,0
2016-10-16T03:03:48.730Z,0
2016-10-16T03:04:29.252Z,0
2016-10-16T03:05:09.788Z,0
2016-10-16T03:05:50.326Z,0
2016-10-16T03:06:30.870Z,0
2016-10-16T03:07:11.411Z,0
2016-10-16T03:07:51.956Z,0
2016-10-16T03:08:32.483Z,0
2016-10-16T03:09:13.016Z,0
2016-10-16T03:09:53.555Z,0
2016-10-16T03:10:34.096Z,0
2016-10-16T03:11:14.635Z,0
2016-10-16T03:11:55.174Z,0
2016-10-16T03:12:35.723Z,0
2016-10-16T03:13:16.261Z,0
2016-10-16T03:13:56.796Z,0
2016-10-16T03:14:37.326Z,0
2016-10-16T03:15:17.862Z,0
2016-10-16T03:15:58.409Z,0
2016-10-16T03:16:38.946Z,0
2016-10-16T03:17:19.487Z,0
2016-10-16T03:18:00.019Z,0
2016-10-16T03:18:40.545Z,0
2016-10-16T03:19:21.082Z,0
2016-10-16T03:20:01.623Z,0
2016-10-16T03:20:42.160Z,0
2016-10-16T03:21:22.702Z,0
2016-10-16T03:22:03.247Z,0
2016-10-16T03:22:43.771Z,0
2016-10-16T03:23:24.320Z,0
2016-10-16T03:24:04.852Z,0
2016-10-16T03:24:45.386Z,0
2016-10-16T03:25:25.921Z,0
2016-10-16T03:26:06.470Z,0
2016-10-16T03:26:47.006Z,0
2016-10-16T03:27:27.533Z,0
2016-10-16T03:28:08.072Z,0
2016-10-16T03:28:48.602Z,0
2016-10-16T03:29:29.145Z,0
2016-10-16T03:30:09.673Z,0
2016-10-16T03:30:50.211Z,0
2016-10-16T03:31:30.746Z,0
2016-10-16T03:32:11.287Z,0
2016-10-16T03:32:51.826Z,0
2016-10-16T03:33:32.355Z,0
2016-10-16T03:34:12.896Z,0
2016-10-16T03:34:53.436Z,0
2016-10-16T03:35:33.973Z,0
2016-10-16T03:36:14.513Z,0
2016-10-16T03:36:55.055Z,0
2016-10-16T03:37:35.598Z,0
2016-10-16T03:38:16.139Z,0
2016-10-16T03:38:56.682Z,0
2016-10-16T03:39:37.214Z,0
2016-10-16T03:40:17.738Z,0
2016-10-16T03:40:58.274Z,0
2016-10-16T03:41:38.814Z,0
2016-10-16T03:42:19.349Z,0
2016-10-16T03:42:59.888Z,0
2016-10-16T03:43:40.436Z,0
2016-10-16T03:44:20.970Z,0
2016-10-16T03:45:01.507Z,0
2016-10-16T03:45:42.041Z,0
2016-10-16T03:46:22.584Z,0
2016-10-16T03:47:03.128Z,0
2016-10-16T03:47:43.668Z,0
2016-10-16T03:48:24.217Z,0
2016-10-16T03:49:04.757Z,0
2016-10-16T03:49:45.297Z,0
2016-10-16T03:50:25.842Z,0
2016-10-16T03:51:06.380Z,0
2016-10-16T03:51:46.921Z,0
2016-10-16T03:52:27.452Z,0
2016-10-16T03:53:07.991Z,0
2016-10-16T03:53:48.533Z,0
2016-10-16T03:54:29.069Z,0
2016-10-16T03:55:09.610Z,0
2016-10-16T03:55:50.150Z,0
2016-10-16T03:56:30.677Z,0
2016-10-16T03:57:11.216Z,0
2016-10-16T03:57:51.756Z,0
2016-10-16T03:58:32.297Z,0
2016-10-16T03:59:12.838Z,0
2016-10-16T03:59:53.383Z,0
2016-10-16T04:00:33.927Z,0
2016-10-16T04:01:14.469Z,0
2016-10-16T04:01:55.008Z,0
2016-10-16T04:02:35.557Z,0
2016-10-16T04:03:16.105Z,0
2016-10-16T04:03:56.634Z,0
2016-10-16T04:04:37.177Z,0
2016-10-16T04:05:17.708Z,0
2016-10-16T04:05:58.247Z,0
2016-10-16T04:06:38.793Z,0
2016-10-16T04:07:19.333Z,0
2016-10-16T04:07:59.863Z,0
2016-10-16T04:08:40.410Z,0
2016-10-16T04:09:20.937Z,0
2016-10-16T04:10:01.462Z,0
2016-10-16T04:10:42.006Z,0
2016-10-16T04:11:22.554Z,0
2016-10-16T04:12:03.099Z,0
2016-10-16T04:12:43.649Z,0
2016-10-16T04:13:24.190Z,0
2016-10-16T04:14:04.728Z,0
2016-10-16T04:14:45.267Z,0
2016-10-16T04:15:25.811Z,0
2016-10-16T04:16:06.352Z,0
2016-10-16T04:16:46.888Z,0
2016-10-16T04:17:27.426Z,0
2016-10-16T04:18:07.967Z,0
2016-10-16T04:18:48.512Z,0
2016-10-16T04:19:29.057Z,0
2016-10-16T04:20:09.598Z,0
2016-10-16T04:20:50.139Z,0
2016-10-16T04:21:30.674Z,0
2016-10-16T04:22:11.218Z,0
2016-10-16T04:22:51.752Z,0
2016-10-16T04:23:32.288Z,0
2016-10-16T04:24:12.828Z,0
2016-10-16T04:24:53.371Z,0
2016-10-16T04:25:33.913Z,0
2016-10-16T04:26:14.458Z,0
2016-10-16T04:26:55.000Z,0
2016-10-16T04:27:35.545Z,0
2016-10-16T04:28:16.080Z,0
2016-10-16T04:28:56.609Z,0
2016-10-16T04:29:37.148Z,0
2016-10-16T04:30:17.693Z,0
2016-10-16T04:30:58.236Z,0
2016-10-16T04:31:38.773Z,0
2016-10-16T04:32:19.318Z,0
2016-10-16T04:32:59.859Z,0
2016-10-16T04:33:40.407Z,0
2016-10-16T04:34:20.946Z,0
2016-10-16T04:35:01.484Z,0
2016-10-16T04:35:42.014Z,0
2016-10-16T04:36:22.552Z,0
2016-10-16T04:37:03.093Z,0
2016-10-16T04:37:43.629Z,0
2016-10-16T04:38:24.164Z,0
2016-10-16T04:39:04.697Z,0
2016-10-16T04:39:45.259Z,0
2016-10-16T04:40:25.765Z,0
2016-10-16T04:41:06.293Z,0
2016-10-16T04:41:46.831Z,0
2016-10-16T04:42:27.375Z,0
2016-10-16T04:43:07.923Z,0
2016-10-16T04:43:48.481Z,0
2016-10-16T04:44:29.019Z,0
2016-10-16T04:45:09.559Z,0
2016-10-16T04:45:50.103Z,0
2016-10-16T04:46:30.624Z,0
2016-10-16T04:47:11.159Z,0
2016-10-16T04:47:51.694Z,0
2016-10-16T04:48:32.235Z,0
2016-10-16T04:49:12.762Z,0
2016-10-16T04:49:53.307Z,0
2016-10-16T04:50:33.851Z,0
2016-10-16T04:51:14.391Z,0
2016-10-16T04:51:54.931Z,0
2016-10-16T04:52:35.464Z,0
2016-10-16T04:53:16.004Z,0
2016-10-16T04:53:56.542Z,0
2016-10-16T04:54:37.086Z,0
2016-10-16T04:55:17.624Z,0
2016-10-16T04:55:58.165Z,0
2016-10-16T04:56:38.701Z,0
2016-10-16T04:57:19.254Z,0
2016-10-16T04:57:59.791Z,0
2016-10-16T04:58:40.321Z,0
2016-10-16T04:59:20.852Z,0
2016-10-16T05:00:01.396Z,0
2016-10-16T05:00:41.940Z,0
2016-10-16T05:01:22.480Z,0
2016-10-16T05:02:03.009Z,0
2016-10-16T05:02:43.554Z,0
2016-10-16T05:03:24.081Z,0
2016-10-16T05:04:04.616Z,0
2016-10-16T05:04:45.152Z,0
2016-10-16T05:05:25.691Z,0
2016-10-16T05:06:06.230Z,0
2016-10-16T05:06:46.763Z,0
2016-10-16T05:07:27.309Z,0
2016-10-16T05:08:07.854Z,0
2016-10-16T05:08:48.398Z,0
2016-10-16T05:09:28.923Z,0
2016-10-16T05:10:09.452Z,0
2016-10-16T05:10:49.995Z,0
2016-10-16T05:11:30.541Z,0
2016-10-16T05:12:11.068Z,0
2016-10-16T05:12:51.597Z,0
2016-10-16T05:13:32.127Z,0
2016-10-16T05:14:12.685Z,0
2016-10-16T05:14:53.224Z,0
2016-10-16T05:15:33.757Z,0
2016-10-16T05:16:14.292Z,0
2016-10-16T05:16:54.828Z,0
2016-10-16T05:17:35.359Z,0
2016-10-16T05:18:15.896Z,0
2016-10-16T05:18:56.437Z,0
2016-10-16T05:19:36.970Z,0
2016-10-16T05:20:17.517Z,0
2016-10-16T05:20:58.055Z,0
2016-10-16T05:21:38.588Z,0
2016-10-16T05:22:19.121Z,0
2016-10-16T05:22:59.649Z,0
2016-10-16T05:23:40.198Z,0
2016-10-16T05:24:20.740Z,0
2016-10-16T05:25:01.279Z,0
2016-10-16T05:25:41.817Z,0
2016-10-16T05:26:22.364Z,0
2016-10-16T05:27:02.911Z,0
2016-10-16T05:27:43.459Z,4
2016-10-16T05:28:24.001Z,4
2016-10-16T05:29:04.542Z,0
2016-10-16T05:29:45.081Z,0
2016-10-16T05:30:25.619Z,4
2016-10-16T05:31:06.146Z,4
2016-10-16T05:31:46.686Z,4
2016-10-16T05:32:27.219Z,8
2016-10-16T05:33:07.765Z,4
2016-10-16T05:33:48.306Z,8
2016-10-16T05:34:28.849Z,8
2016-10-16T05:35:09.384Z,8
2016-10-16T05:35:49.916Z,12
2016-10-16T05:36:30.466Z,12
2016-10-16T05:37:11.003Z,12
2016-10-16T05:37:51.532Z,12
2016-10-16T05:38:32.071Z,16
2016-10-16T05:39:12.611Z,16
2016-10-16T05:39:53.147Z,20
2016-10-16T05:40:33.688Z,24
2016-10-16T05:41:14.222Z,24
2016-10-16T05:41:54.754Z,28
2016-10-16T05:42:35.288Z,28
2016-10-16T05:43:15.823Z,32
2016-10-16T05:43:56.364Z,40
2016-10-16T05:44:36.914Z,40
2016-10-16T05:45:17.457Z,44
2016-10-16T05:45:57.995Z,52
2016-10-16T05:46:38.531Z,56
2016-10-16T05:47:19.069Z,60
2016-10-16T05:47:59.602Z,64
2016-10-16T05:48:40.142Z,72
2016-10-16T05:49:20.676Z,80
2016-10-16T05:50:01.219Z,84
2016-10-16T05:50:41.761Z,92
2016-10-16T05:51:22.297Z,100
2016-10-16T05:52:02.836Z,104
2016-10-16T05:52:43.366Z,112
2016-10-16T05:53:23.903Z,124
2016-10-16T05:54:04.442Z,132
2016-10-16T05:54:44.982Z,140
2016-10-16T05:55:25.519Z,148
2016-10-16T05:56:06.051Z,160
2016-10-16T05:56:46.582Z,172
2016-10-16T05:57:27.119Z,180
2016-10-16T05:58:07.654Z,196
2016-10-16T05:58:48.184Z,204
2016-10-16T05:59:28.726Z,216
2016-10-16T06:00:09.274Z,228
2016-10-16T06:00:49.813Z,240
2016-10-16T06:01:30.351Z,252
2016-10-16T06:02:10.898Z,264
2016-10-16T06:02:51.431Z,280
2016-10-16T06:03:31.960Z,292
2016-10-16T06:04:12.501Z,304
2016-10-16T06:04:53.037Z,320
2016-10-16T06:05:33.582Z,332
2016-10-16T06:06:14.125Z,344
2016-10-16T06:06:54.666Z,364
2016-10-16T06:07:35.218Z,376
2016-10-16T06:08:15.756Z,388
2016-10-16T06:08:56.285Z,404
2016-10-16T06:09:36.826Z,424
2016-10-16T06:10:17.354Z,436
2016-10-16T06:10:57.895Z,456
2016-10-16T06:11:38.436Z,472
2016-10-16T06:12:18.963Z,488
2016-10-16T06:12:59.505Z,504
2016-10-16T06:13:40.032Z,520
2016-10-16T06:14:20.565Z,536
2016-10-16T06:15:01.108Z,556
2016-10-16T06:15:41.645Z,572
2016-10-16T06:16:22.189Z,592
2016-10-16T06:17:02.727Z,604
2016-10-16T06:17:43.267Z,620
2016-10-16T06:18:23.801Z,640
2016-10-16T06:19:04.341Z,652
2016-10-16T06:19:44.878Z,672
2016-10-16T06:20:25.514Z,692
2016-10-16T06:21:06.051Z,708
2016-10-16T06:21:46.597Z,724
2016-10-16T06:22:27.125Z,744
2016-10-16T06:23:07.672Z,760
2016-10-16T06:23:48.198Z,776
2016-10-16T06:24:28.748Z,792
2016-10-16T06:25:09.273Z,808
2016-10-16T06:25:49.873Z,828
2016-10-16T06:26:30.412Z,844
2016-10-16T06:27:10.944Z,856
2016-10-16T06:27:51.482Z,876
2016-10-16T06:28:32.016Z,892
2016-10-16T06:29:12.561Z,904
2016-10-16T06:29:53.109Z,920
2016-10-16T06:30:33.648Z,940
2016-10-16T06:31:14.191Z,960
2016-10-16T06:31:54.730Z,980
2016-10-16T06:32:35.279Z,1000
2016-10-16T06:33:15.814Z,1024
2016-10-16T06:33:56.347Z,1044
2016-10-16T06:34:36.880Z,1068
2016-10-16T06:35:17.416Z,1084
2016-10-16T06:35:57.960Z,1116
2016-10-16T06:36:38.520Z,1124
2016-10-16T06:37:19.058Z,1148
2016-10-16T06:37:59.600Z,1164
2016-10-16T06:38:40.140Z,1200
2016-10-16T06:39:20.674Z,1224
2016-10-16T06:40:01.207Z,1240
2016-10-16T06:40:41.734Z,1272
2016-10-16T06:41:22.277Z,1284
2016-10-16T06:42:02.804Z,1352
2016-10-16T06:42:43.346Z,1348
2016-10-16T06:43:23.888Z,1320
2016-10-16T06:44:04.400Z,1356
2016-10-16T06:44:44.928Z,1344
2016-10-16T06:45:25.461Z,1348
2016-10-16T06:46:06.011Z,1364
2016-10-16T06:46:46.545Z,1384
2016-10-16T06:47:27.098Z,1376
2016-10-16T06:48:07.596Z,1372
2016-10-16T06:48:48.136Z,1388
2016-10-16T06:49:28.682Z,1392
2016-10-16T06:50:09.214Z,1404
2016-10-16T06:50:49.747Z,1432
2016-10-16T06:51:30.295Z,1452
2016-10-16T06:52:10.848Z,1476
2016-10-16T06:52:51.363Z,1476
2016-10-16T06:53:31.895Z,1500
2016-10-16T06:54:12.440Z,1488
2016-10-16T06:54:52.985Z,1532
2016-10-16T06:55:33.523Z,1564
2016-10-16T06:56:14.073Z,1576
2016-10-16T06:56:54.612Z,1576
2016-10-16T06:57:35.151Z,1600
2016-10-16T06:58:15.682Z,1612
2016-10-16T06:58:56.229Z,1620
2016-10-16T06:59:36.768Z,1644
2016-10-16T07:00:17.293Z,1644
2016-10-16T07:00:57.838Z,1672
2016-10-16T07:01:38.374Z,1676
2016-10-16T07:02:18.917Z,1700
2016-10-16T07:02:59.453Z,1704
2016-10-16T07:03:39.994Z,1732
2016-10-16T07:04:20.523Z,1740
2016-10-16T07:05:01.066Z,1740
2016-10-16T07:05:41.607Z,1760
2016-10-16T07:06:22.140Z,1768
2016-10-16T07:07:02.673Z,1800
2016-10-16T07:07:43.211Z,1788
2016-10-16T07:08:23.745Z,1812
2016-10-16T07:09:04.287Z,1832
2016-10-16T07:09:44.827Z,1816
2016-10-16T07:10:25.357Z,1840
2016-10-16T07:11:05.886Z,1840
2016-10-16T07:11:46.436Z,1856
2016-10-16T07:12:26.967Z,1868
2016-10-16T07:13:07.511Z,1864
2016-10-16T07:13:48.062Z,1884
2016-10-16T07:14:28.597Z,1964
2016-10-16T07:15:09.122Z,1948
2016-10-16T07:15:49.662Z,2000
2016-10-16T07:16:30.201Z,1992
2016-10-16T07:17:10.740Z,1988
2016-10-16T07:17:51.281Z,1988
2016-10-16T07:18:31.832Z,2008
2016-10-16T07:19:12.380Z,2028
2016-10-16T07:19:52.928Z,2016
2016-10-16T07:20:33.471Z,2008
2016-10-16T07:21:14.011Z,2000
2016-10-16T07:21:54.548Z,2004
2016-10-16T07:22:35.080Z,2004
2016-10-16T07:23:15.610Z,1988
2016-10-16T07:23:56.158Z,1992
2016-10-16T07:24:36.697Z,2020
2016-10-16T07:25:17.236Z,2056
2016-10-16T07:25:57.783Z,2084
2016-10-16T07:26:38.324Z,2100
2016-10-16T07:27:18.853Z,2108
2016-10-16T07:27:59.392Z,2116
2016-10-16T07:28:39.919Z,2136
2016-10-16T07:29:20.463Z,2188
2016-10-16T07:30:01.010Z,2180
2016-10-16T07:30:41.538Z,2196
2016-10-16T07:31:22.079Z,2192
2016-10-16T07:32:02.605Z,2208
2016-10-16T07:32:43.136Z,2224
2016-10-16T07:33:23.670Z,2240
2016-10-16T07:34:04.216Z,2252
2016-10-16T07:34:44.763Z,2240
2016-10-16T07:35:25.303Z,2248
2016-10-16T07:36:05.842Z,2232
2016-10-16T07:36:46.383Z,2204
2016-10-16T07:37:26.914Z,2292
2016-10-16T07:38:07.434Z,2336
2016-10-16T07:38:47.975Z,2364
2016-10-16T07:39:28.518Z,2392
2016-10-16T07:40:09.068Z,2428
2016-10-16T07:40:49.607Z,2420
2016-10-16T07:41:30.148Z,2484
2016-10-16T07:42:10.680Z,2504
2016-10-16T07:42:51.218Z,2660
2016-10-16T07:43:31.735Z,2700
2016-10-16T07:44:12.283Z,2648
2016-10-16T07:44:52.815Z,2652
2016-10-16T07:45:33.361Z,2668
2016-10-16T07:46:13.901Z,2680
2016-10-16T07:46:54.454Z,2660
2016-10-16T07:47:35.000Z,2700
2016-10-16T07:48:15.547Z,2700
2016-10-16T07:48:56.074Z,2752
2016-10-16T07:49:36.621Z,2756
2016-10-16T07:50:17.146Z,2760
2016-10-16T07:50:57.691Z,2804
2016-10-16T07:51:38.231Z,3048
2016-10-16T07:52:18.781Z,3376
2016-10-16T07:52:59.349Z,3228
2016-10-16T07:53:39.891Z,2868
2016-10-16T07:54:20.439Z,2836
2016-10-16T07:55:00.990Z,2912
2016-10-16T07:55:41.536Z,2892
2016-10-16T07:56:22.072Z,2952
2016-10-16T07:57:02.614Z,2948
2016-10-16T07:57:43.152Z,2940
2016-10-16T07:58:23.682Z,2944
2016-10-16T07:59:04.221Z,2940
2016-10-16T07:59:44.754Z,2940
2016-10-16T08:00:25.303Z,2972
2016-10-16T08:01:05.850Z,2992
2016-10-16T08:01:46.394Z,2972
2016-10-16T08:02:26.931Z,2956
2016-10-16T08:03:07.462Z,2968
2016-10-16T08:03:48.008Z,2992
2016-10-16T08:04:28.573Z,3004
2016-10-16T08:05:09.109Z,2980
2016-10-16T08:05:49.640Z,2972
2016-10-16T08:06:30.168Z,2984
2016-10-16T08:07:10.709Z,3000
2016-10-16T08:07:51.291Z,2988
2016-10-16T08:08:31.810Z,3004
2016-10-16T08:09:12.351Z,3036
2016-10-16T08:09:52.873Z,3020
2016-10-16T08:10:33.392Z,3056
2016-10-16T08:11:13.903Z,3068
2016-10-16T08:11:54.451Z,3104
2016-10-16T08:12:34.974Z,3128
2016-10-16T08:13:15.492Z,3156
2016-10-16T08:13:56.012Z,3184
2016-10-16T08:14:36.546Z,3208
2016-10-16T08:15:17.094Z,3240
2016-10-16T08:15:57.632Z,3308
2016-10-16T08:16:38.161Z,3332
2016-10-16T08:17:18.681Z,3372
2016-10-16T08:17:59.219Z,3380
2016-10-16T08:18:39.783Z,3376
2016-10-16T08:19:20.312Z,3372
2016-10-16T08:20:00.853Z,3388
2016-10-16T08:20:41.390Z,3376
2016-10-16T08:21:21.925Z,3396
2016-10-16T08:22:02.460Z,3448
2016-10-16T08:22:43.018Z,3464
2016-10-16T08:23:23.545Z,3492
2016-10-16T08:24:04.064Z,3488
2016-10-16T08:24:44.611Z,3512
2016-10-16T08:25:25.163Z,3532
2016-10-16T08:26:05.692Z,3536
2016-10-16T08:26:46.249Z,3552
2016-10-16T08:27:26.790Z,3564
2016-10-16T08:28:07.312Z,3576
2016-10-16T08:28:47.859Z,3616
2016-10-16T08:29:28.392Z,3616
2016-10-16T08:30:09.007Z,3620
2016-10-16T08:30:49.443Z,3644
2016-10-16T08:31:29.990Z,3672
2016-10-16T08:32:10.556Z,3700
2016-10-16T08:32:51.097Z,3728
2016-10-16T08:33:31.642Z,3776
2016-10-16T08:34:12.183Z,3840
2016-10-16T08:34:52.721Z,3868
2016-10-16T08:35:33.263Z,3900
2016-10-16T08:36:13.812Z,3952
2016-10-16T08:36:54.350Z,4000
2016-10-16T08:37:34.898Z,4060
2016-10-16T08:38:15.436Z,4100
2016-10-16T08:38:55.977Z,4132
2016-10-16T08:39:36.510Z,4156
2016-10-16T08:40:17.061Z,4220
2016-10-16T08:40:57.604Z,4284
2016-10-16T08:41:38.163Z,4388
2016-10-16T08:42:18.690Z,4536
2016-10-16T08:42:59.229Z,4708
2016-10-16T08:43:39.769Z,4824
2016-10-16T08:44:20.302Z,4948
2016-10-16T08:45:00.840Z,5040
2016-10-16T08:45:41.374Z,5100
2016-10-16T08:46:21.914Z,5144
2016-10-16T08:47:02.453Z,5236
2016-10-16T08:47:42.996Z,5300
2016-10-16T08:48:23.524Z,5848
2016-10-16T08:49:04.063Z,12004
2016-10-16T08:49:44.598Z,19808
2016-10-16T08:50:25.139Z,24544
2016-10-16T08:51:05.685Z,25152
2016-10-16T08:51:46.220Z,25280
2016-10-16T08:52:26.769Z,25408
2016-10-16T08:53:07.305Z,25376
2016-10-16T08:53:47.852Z,25632
2016-10-16T08:54:28.393Z,25952
2016-10-16T08:55:08.905Z,26400
2016-10-16T08:55:49.452Z,26528
2016-10-16T08:56:29.998Z,26688
2016-10-16T08:57:10.542Z,26784
2016-10-16T08:57:51.078Z,26976
2016-10-16T08:58:31.614Z,27104
2016-10-16T08:59:12.138Z,27168
2016-10-16T08:59:52.665Z,27712
2016-10-16T09:00:33.207Z,28256
2016-10-16T09:01:13.746Z,28224
2016-10-16T09:01:54.299Z,28224
2016-10-16T09:02:34.847Z,28000
2016-10-16T09:03:15.398Z,27616
2016-10-16T09:03:55.951Z,26560
2016-10-16T09:04:36.502Z,26144
2016-10-16T09:05:17.039Z,26208
2016-10-16T09:05:57.564Z,26464
2016-10-16T09:06:38.120Z,27744
2016-10-16T09:07:18.668Z,28448
2016-10-16T09:07:59.215Z,29280
2016-10-16T09:08:39.742Z,28864
2016-10-16T09:09:20.301Z,29376
2016-10-16T09:10:00.858Z,30112
2016-10-16T09:10:41.386Z,29696
2016-10-16T09:11:21.933Z,29280
2016-10-16T09:12:02.489Z,29440
2016-10-16T09:12:43.038Z,29440
2016-10-16T09:13:23.584Z,28800
2016-10-16T09:14:04.133Z,28768
2016-10-16T09:14:44.678Z,29696
2016-10-16T09:15:25.225Z,29920
2016-10-16T09:16:05.773Z,29696
2016-10-16T09:16:46.318Z,30016
2016-10-16T09:17:26.868Z,30272
2016-10-16T09:18:07.418Z,30304
2016-10-16T09:18:47.972Z,29952
2016-10-16T09:19:28.522Z,29952
2016-10-16T09:20:09.072Z,29984
2016-10-16T09:20:49.622Z,29920
2016-10-16T09:21:30.173Z,29344
2016-10-16T09:22:10.723Z,29632
2016-10-16T09:22:51.275Z,29792
2016-10-16T09:23:31.827Z,29056
2016-10-16T09:24:12.376Z,29504
2016-10-16T09:24:52.927Z,30368
2016-10-16T09:25:33.469Z,30816
2016-10-16T09:26:14.019Z,30528
2016-10-16T09:26:54.577Z,31008
2016-10-16T09:27:35.130Z,31392
2016-10-16T09:28:15.678Z,32032
2016-10-16T09:28:56.230Z,31680
2016-10-16T09:29:36.774Z,31680
2016-10-16T09:30:17.328Z,32288
2016-10-16T09:30:57.876Z,32928
2016-10-16T09:31:38.440Z,33184
2016-10-16T09:32:18.992Z,33472
2016-10-16T09:32:59.573Z,32512
2016-10-16T09:33:40.116Z,33088
2016-10-16T09:34:20.666Z,33984
2016-10-16T09:35:01.226Z,34752
2016-10-16T09:35:41.777Z,35168
2016-10-16T09:36:22.319Z,34976
2016-10-16T09:37:02.868Z,36128
2016-10-16T09:37:43.417Z,36064
2016-10-16T09:38:23.968Z,36256
2016-10-16T09:39:04.512Z,36192
2016-10-16T09:39:45.064Z,35168
2016-10-16T09:40:25.612Z,34912
2016-10-16T09:41:06.165Z,35520
2016-10-16T09:41:46.717Z,35808
2016-10-16T09:42:27.266Z,35680
2016-10-16T09:43:07.817Z,35104
2016-10-16T09:43:48.368Z,36576
2016-10-16T09:44:28.918Z,36960
2016-10-16T09:45:09.463Z,37664
2016-10-16T09:45:50.019Z,38784